createdAt,value
2022-09-15T00:01:32.241Z,2.10
2022-09-15T00:04:34.242Z,2.13
2022-09-15T00:10:39.262Z,1.70
2022-09-15T00:13:41.665Z,1.80
2022-09-15T00:16:43.637Z,1.80
2022-09-15T00:19:45.660Z,1.90
2022-09-15T00:22:48.708Z,1.55
2022-09-15T00:25:52.724Z,1.58
2022-09-15T00:28:55.860Z,1.60
2022-09-15T00:31:57.681Z,1.30
2022-09-15T00:34:59.638Z,1.27
2022-09-15T00:38:01.563Z,1.30
2022-09-15T00:41:05.197Z,1.25
2022-09-15T00:44:36.219Z,1.30
2022-09-15T00:47:40.058Z,1.30
2022-09-15T00:50:45.459Z,1.23
2022-09-15T00:53:48.514Z,1.02
2022-09-15T00:56:53.628Z,1.33
2022-09-15T00:59:59.551Z,1.25
2022-09-15T01:03:02.364Z,1.30
2022-09-15T01:06:23.175Z,1.00
2022-09-15T01:09:28.274Z,1.00
2022-09-15T01:12:30.647Z,1.40
2022-09-15T01:15:57.088Z,1.20
2022-09-15T01:19:28.831Z,1.10
2022-09-15T01:22:45.866Z,1.48
2022-09-15T01:26:08.932Z,1.17
2022-09-15T01:29:48.636Z,1.40
2022-09-15T01:33:14.758Z,1.50
2022-09-15T01:36:25.229Z,1.30
2022-09-15T01:39:36.422Z,1.20
2022-09-15T01:42:39.944Z,1.00
2022-09-15T01:45:43.868Z,1.13
2022-09-15T01:48:48.684Z,1.48
2022-09-15T01:51:53.149Z,1.13
2022-09-15T01:55:05.594Z,1.45
2022-09-15T01:58:08.638Z,1.45
2022-09-15T02:01:14.479Z,1.10
2022-09-15T02:04:24.342Z,1.58
2022-09-15T02:07:36.684Z,1.25
2022-09-15T02:10:46.721Z,1.60
2022-09-15T02:14:24.062Z,1.52
2022-09-15T02:17:29.637Z,1.38
2022-09-15T02:20:37.617Z,1.50
2022-09-15T02:23:45.466Z,1.90
2022-09-15T02:26:49.890Z,1.85
2022-09-15T02:29:55.035Z,1.63
2022-09-15T02:36:15.003Z,1.63
2022-09-15T02:39:20.320Z,1.60
2022-09-15T02:42:24.611Z,1.58
2022-09-15T02:45:27.097Z,2.30
2022-09-15T02:48:29.515Z,1.90
2022-09-15T02:54:33.281Z,2.13
2022-09-15T02:57:35.469Z,1.90
2022-09-15T03:00:37.442Z,1.67
2022-09-15T03:03:42.876Z,1.48
2022-09-15T03:06:45.163Z,2.05
2022-09-15T03:12:52.587Z,1.70
2022-09-15T03:15:54.630Z,2.15
2022-09-15T03:22:06.724Z,1.90
2022-09-15T03:25:09.163Z,1.80
2022-09-15T03:28:11.200Z,2.60
2022-09-15T03:34:14.972Z,2.05
2022-09-15T03:37:20.629Z,2.50
2022-09-15T03:40:22.551Z,2.22
2022-09-15T03:43:24.688Z,2.20
2022-09-15T03:49:28.727Z,1.60
2022-09-15T03:52:31.716Z,1.70
2022-09-15T03:55:33.693Z,1.40
2022-09-15T03:58:35.959Z,1.40
2022-09-15T04:01:38.714Z,1.77
2022-09-15T04:04:40.714Z,1.75
2022-09-15T04:07:42.573Z,1.73
2022-09-15T04:10:44.705Z,1.52
2022-09-15T04:16:48.664Z,1.73
2022-09-15T04:19:50.801Z,1.60
2022-09-15T04:25:57.182Z,1.50
2022-09-15T04:29:04.276Z,1.40
2022-09-15T04:35:10.170Z,1.60
2022-09-15T04:38:12.741Z,1.98
2022-09-15T04:41:15.295Z,1.83
2022-09-15T04:44:17.549Z,1.70
2022-09-15T04:47:19.472Z,1.63
2022-09-15T04:50:21.315Z,1.80
2022-09-15T04:53:23.204Z,1.88
2022-09-15T04:56:26.094Z,1.73
2022-09-15T04:59:28.313Z,2.05
2022-09-15T05:02:33.817Z,2.08
2022-09-15T05:05:43.404Z,1.83
2022-09-15T05:08:51.773Z,2.88
2022-09-15T05:11:54.548Z,1.90
2022-09-15T05:18:13.669Z,2.00
2022-09-15T05:21:21.090Z,1.88
2022-09-15T05:33:00.386Z,1.77
2022-09-15T05:36:04.379Z,2.30
2022-09-15T05:39:08.145Z,2.17
2022-09-15T05:42:10.928Z,1.77
2022-09-15T05:45:13.208Z,2.17
2022-09-15T05:48:15.343Z,2.10
2022-09-15T05:51:17.263Z,2.55
2022-09-15T05:54:19.246Z,2.38
2022-09-15T05:57:21.157Z,2.03
2022-09-15T06:03:39.867Z,2.72
2022-09-15T06:09:43.593Z,3.33
2022-09-15T06:12:46.445Z,3.60
2022-09-15T06:15:48.489Z,2.55
2022-09-15T06:18:52.139Z,2.30
2022-09-15T06:21:54.406Z,2.20
2022-09-15T06:28:00.753Z,2.50
2022-09-15T06:31:02.930Z,2.92
2022-09-15T06:34:04.945Z,2.00
2022-09-15T06:40:09.915Z,2.67
2022-09-15T06:43:11.947Z,2.38
2022-09-15T06:49:18.247Z,2.45
2022-09-15T06:52:20.160Z,2.22
2022-09-15T06:55:22.218Z,2.10
2022-09-15T07:01:30.393Z,1.80
2022-09-15T07:04:34.134Z,2.40
2022-09-15T07:07:36.290Z,2.83
2022-09-15T07:10:38.280Z,2.97
2022-09-15T07:13:41.086Z,4.65
2022-09-15T07:16:43.041Z,5.13
2022-09-15T07:19:44.911Z,5.90
2022-09-15T07:22:46.846Z,6.25
2022-09-15T07:25:48.657Z,6.55
2022-09-15T07:29:06.036Z,7.30
2022-09-15T07:32:08.146Z,5.95
2022-09-15T07:38:12.341Z,5.90
2022-09-15T07:41:17.792Z,5.68
2022-09-15T07:44:19.668Z,6.55
2022-09-15T07:47:21.547Z,5.88
2022-09-15T07:50:23.679Z,5.18
2022-09-15T07:56:31.878Z,6.00
2022-09-15T07:59:35.560Z,5.15
2022-09-15T08:02:40.366Z,4.68
2022-09-15T08:05:45.545Z,5.10
2022-09-15T08:08:48.723Z,5.60
2022-09-15T08:11:51.132Z,5.20
2022-09-15T08:14:53.131Z,5.47
2022-09-15T08:17:55.038Z,5.60
2022-09-15T08:20:57.160Z,6.30
2022-09-15T08:23:59.991Z,5.68
2022-09-15T08:27:02.017Z,5.40
2022-09-15T08:30:06.323Z,5.97
2022-09-15T08:33:08.305Z,6.07
2022-09-15T08:36:11.283Z,5.97
2022-09-15T08:39:13.309Z,5.63
2022-09-15T08:42:18.193Z,5.95
2022-09-15T08:45:36.610Z,5.55
2022-09-15T08:48:48.209Z,5.07
2022-09-15T08:51:52.097Z,4.60
2022-09-15T08:54:58.712Z,4.40
2022-09-15T08:58:01.566Z,4.80
2022-09-15T09:01:16.667Z,4.45
2022-09-15T09:04:41.538Z,4.53
2022-09-15T09:07:43.444Z,4.72
2022-09-15T09:11:02.304Z,4.50
2022-09-15T09:14:36.736Z,3.97
2022-09-15T09:18:08.290Z,4.57
2022-09-15T09:21:12.977Z,4.35
2022-09-15T09:24:16.667Z,4.03
2022-09-15T09:27:24.612Z,4.43
2022-09-15T09:30:30.756Z,4.00
2022-09-15T09:33:48.148Z,4.22
2022-09-15T09:36:58.704Z,4.55
2022-09-15T09:40:01.345Z,3.95
2022-09-15T09:43:03.511Z,4.25
2022-09-15T09:46:17.442Z,4.43
2022-09-15T09:49:23.393Z,4.10
2022-09-15T09:52:36.616Z,4.95
2022-09-15T09:55:38.453Z,5.05
2022-09-15T09:58:40.237Z,5.38
2022-09-15T10:01:45.021Z,5.03
2022-09-15T10:05:17.139Z,5.22
2022-09-15T10:08:20.962Z,5.20
2022-09-15T10:11:41.936Z,5.20
2022-09-15T10:14:51.120Z,5.10
2022-09-15T10:17:55.779Z,5.63
2022-09-15T10:20:58.246Z,5.53
2022-09-15T10:24:32.066Z,5.70
2022-09-15T10:27:36.542Z,5.10
2022-09-15T10:30:39.492Z,5.50
2022-09-15T10:33:43.331Z,5.75
2022-09-15T10:36:46.754Z,5.97
2022-09-15T10:39:54.088Z,7.07
2022-09-15T10:43:12.385Z,6.25
2022-09-15T10:46:21.932Z,6.10
2022-09-15T10:50:01.644Z,6.20
2022-09-15T11:03:36.137Z,6.35
2022-09-15T11:07:04.043Z,7.03
2022-09-15T11:10:24.864Z,6.32
2022-09-15T11:13:32.489Z,6.68
2022-09-15T11:17:01.617Z,6.93
2022-09-15T11:20:35.082Z,7.38
2022-09-15T11:23:47.664Z,6.70
2022-09-15T11:27:20.397Z,6.30
2022-09-15T11:30:32.376Z,6.43
2022-09-15T11:33:52.254Z,7.45
2022-09-15T11:37:21.344Z,5.80
2022-09-15T11:40:36.027Z,6.00
2022-09-15T11:43:56.847Z,5.57
2022-09-15T11:47:23.411Z,6.68
2022-09-15T11:50:35.973Z,5.57
2022-09-15T11:53:42.887Z,4.68
2022-09-15T11:56:47.067Z,4.93
2022-09-15T12:00:05.996Z,4.93
2022-09-15T12:03:30.893Z,4.72
2022-09-15T12:06:43.262Z,4.28
2022-09-15T12:09:47.388Z,4.97
2022-09-15T12:12:51.546Z,4.20
2022-09-15T12:15:54.686Z,3.35
2022-09-15T12:19:06.768Z,2.92
2022-09-15T12:22:27.888Z,2.40
2022-09-15T12:25:56.544Z,2.38
2022-09-15T12:29:04.127Z,2.00
2022-09-15T12:32:26.459Z,2.40
2022-09-15T12:35:31.615Z,2.30
2022-09-15T12:38:33.454Z,2.08
2022-09-15T12:41:35.372Z,2.20
2022-09-15T12:44:40.542Z,2.40
2022-09-15T12:47:51.146Z,2.40
2022-09-15T12:50:59.681Z,2.47
2022-09-15T12:54:04.323Z,2.42
2022-09-15T12:57:08.085Z,2.30
2022-09-15T13:00:35.803Z,2.38
2022-09-15T13:07:17.603Z,2.60
2022-09-15T13:10:31.677Z,2.97
2022-09-15T13:17:13.190Z,2.50
2022-09-15T13:20:30.653Z,2.00
2022-09-15T13:23:38.523Z,2.17
2022-09-15T13:26:44.129Z,2.40
2022-09-15T13:30:13.895Z,2.38
2022-09-15T13:41:27.010Z,2.10
2022-09-15T13:45:05.368Z,2.00
2022-09-15T13:48:45.513Z,2.03
2022-09-15T13:51:59.905Z,2.03
2022-09-15T13:55:18.487Z,2.30
2022-09-15T14:01:46.408Z,2.00
2022-09-15T14:04:50.492Z,2.17
2022-09-15T14:11:13.292Z,2.30
2022-09-15T14:14:51.494Z,1.75
2022-09-15T14:17:55.672Z,1.75
2022-09-15T14:20:59.565Z,2.05
2022-09-15T14:24:20.372Z,1.80
2022-09-15T14:27:33.819Z,1.60
2022-09-15T14:30:36.280Z,2.08
2022-09-15T14:33:41.031Z,1.88
2022-09-15T14:36:42.956Z,1.90
2022-09-15T14:39:52.593Z,1.98
2022-09-15T14:42:54.591Z,1.73
2022-09-15T14:46:09.307Z,1.73
2022-09-15T14:49:12.441Z,2.13
2022-09-15T14:52:30.766Z,1.92
2022-09-15T14:55:48.409Z,1.90
2022-09-15T14:58:58.046Z,1.98
2022-09-15T15:02:24.972Z,1.83
2022-09-15T15:05:35.475Z,1.70
2022-09-15T15:08:56.529Z,1.80
2022-09-15T15:12:06.450Z,1.55
2022-09-15T15:15:12.641Z,2.35
2022-09-15T15:18:36.276Z,2.47
2022-09-15T15:21:39.795Z,2.03
2022-09-15T15:24:44.450Z,2.03
2022-09-15T15:27:54.690Z,1.73
2022-09-15T15:31:06.499Z,1.80
2022-09-15T15:34:24.662Z,1.83
2022-09-15T15:37:34.122Z,1.92
2022-09-15T15:40:38.456Z,1.50
2022-09-15T15:43:53.807Z,1.67
2022-09-15T15:47:14.285Z,2.55
2022-09-15T15:50:20.299Z,2.08
2022-09-15T15:53:23.912Z,2.30
2022-09-15T15:56:25.886Z,1.80
2022-09-15T15:59:27.718Z,2.13
2022-09-15T16:02:30.251Z,2.15
2022-09-15T16:05:32.849Z,2.17
2022-09-15T16:08:38.151Z,1.90
2022-09-15T16:11:41.316Z,2.28
2022-09-15T16:14:43.175Z,1.80
2022-09-15T16:17:46.880Z,2.03
2022-09-15T16:20:49.125Z,2.00
2022-09-15T16:23:50.900Z,2.33
2022-09-15T16:26:53.905Z,2.60
2022-09-15T16:29:56.026Z,2.03
2022-09-15T16:36:00.984Z,2.38
2022-09-15T16:39:03.215Z,1.88
2022-09-15T16:42:05.264Z,2.10
2022-09-15T16:48:19.822Z,1.98
2022-09-15T16:51:30.689Z,2.63
2022-09-15T16:54:33.408Z,2.00
2022-09-15T16:57:35.376Z,2.47
2022-09-15T17:03:47.803Z,2.10
2022-09-15T17:06:49.706Z,2.33
2022-09-15T17:09:51.576Z,2.70
2022-09-15T17:12:54.055Z,2.38
2022-09-15T17:15:56.069Z,2.10
2022-09-15T17:21:59.770Z,2.25
2022-09-15T17:25:01.602Z,2.45
2022-09-15T17:28:03.483Z,2.17
2022-09-15T17:31:12.235Z,2.17
2022-09-15T17:34:16.861Z,1.90
2022-09-15T17:37:18.710Z,2.33
2022-09-15T17:40:21.775Z,2.00
2022-09-15T17:43:28.051Z,2.10
2022-09-15T17:46:29.938Z,2.08
2022-09-15T17:49:31.908Z,2.33
2022-09-15T17:52:33.820Z,2.17
2022-09-15T17:55:36.357Z,2.30
2022-09-15T17:58:38.262Z,1.77
2022-09-15T18:01:40.200Z,2.28
2022-09-15T18:04:42.132Z,2.10
2022-09-15T18:07:44.046Z,2.40
2022-09-15T18:10:48.614Z,2.80
2022-09-15T18:13:50.477Z,2.42
2022-09-15T18:16:52.345Z,2.53
2022-09-15T18:19:54.164Z,2.33
2022-09-15T18:22:56.509Z,2.67
2022-09-15T18:25:58.429Z,2.20
2022-09-15T18:29:00.481Z,2.72
2022-09-15T18:32:02.516Z,2.60
2022-09-15T18:35:04.621Z,2.60
2022-09-15T18:38:07.224Z,2.70
2022-09-15T18:41:10.939Z,3.10
2022-09-15T18:44:12.966Z,2.53
2022-09-15T18:47:15.096Z,2.83
2022-09-15T18:53:20.175Z,2.72
2022-09-15T18:56:22.097Z,3.17
2022-09-15T18:59:24.064Z,2.50
2022-09-15T19:02:26.214Z,2.95
2022-09-15T19:08:30.383Z,2.47
2022-09-15T19:11:32.244Z,3.22
2022-09-15T19:14:34.154Z,2.70
2022-09-15T19:17:36.513Z,2.90
2022-09-15T19:20:38.539Z,3.47
2022-09-15T19:23:40.420Z,2.78
2022-09-15T19:26:45.720Z,3.28
2022-09-15T19:29:47.702Z,3.17
2022-09-15T19:32:49.739Z,3.17
2022-09-15T19:36:04.902Z,3.03
2022-09-15T19:39:14.340Z,3.10
2022-09-15T19:42:16.378Z,3.03
2022-09-15T19:45:18.328Z,3.05
2022-09-15T19:48:20.369Z,2.83
2022-09-15T19:51:22.752Z,3.10
2022-09-15T19:54:26.888Z,3.40
2022-09-15T19:57:28.755Z,3.17
2022-09-15T20:00:30.671Z,3.00
2022-09-15T20:03:32.562Z,2.85
2022-09-15T20:06:35.352Z,3.53
2022-09-15T20:09:37.215Z,3.47
2022-09-15T20:12:39.203Z,2.90
2022-09-15T20:15:41.612Z,3.10
2022-09-15T20:18:47.664Z,3.83
2022-09-15T20:21:51.046Z,3.63
2022-09-15T20:24:53.514Z,4.10
2022-09-15T20:27:55.396Z,3.42
2022-09-15T20:31:13.910Z,2.80
2022-09-15T20:34:15.851Z,3.33
2022-09-15T20:37:17.719Z,2.88
2022-09-15T20:40:19.748Z,3.10
2022-09-15T20:43:22.577Z,3.17
2022-09-15T20:46:24.450Z,3.53
2022-09-15T20:49:26.440Z,2.80
2022-09-15T20:52:33.634Z,3.15
2022-09-15T20:55:39.533Z,2.83
2022-09-15T20:58:42.333Z,3.55
2022-09-15T21:01:44.315Z,2.97
2022-09-15T21:04:46.316Z,2.88
2022-09-15T21:07:48.497Z,2.97
2022-09-15T21:13:52.611Z,3.42
2022-09-15T21:19:56.464Z,2.97
2022-09-15T21:22:58.368Z,2.97
2022-09-15T21:26:06.133Z,2.90
2022-09-15T21:29:08.638Z,3.53
2022-09-15T21:32:10.598Z,2.90
2022-09-15T21:35:12.608Z,3.03
2022-09-15T21:38:15.334Z,3.10
2022-09-15T21:41:19.180Z,3.03
2022-09-15T21:44:21.027Z,3.10
2022-09-15T21:47:22.941Z,3.58
2022-09-15T21:50:24.768Z,4.10
2022-09-15T21:53:28.614Z,4.20
2022-09-15T21:56:31.074Z,3.85
2022-09-15T21:59:33.206Z,3.20
2022-09-15T22:02:35.739Z,2.83
2022-09-15T22:05:42.413Z,3.15
2022-09-15T22:08:45.645Z,3.60
2022-09-15T22:11:48.687Z,3.30
2022-09-15T22:14:50.816Z,3.70
2022-09-15T22:21:05.303Z,3.22
2022-09-15T22:24:10.232Z,3.20
2022-09-15T22:27:12.671Z,3.45
2022-09-15T22:33:20.482Z,3.20
2022-09-15T22:36:30.775Z,3.22
2022-09-15T22:39:50.548Z,3.40
2022-09-15T22:43:03.388Z,3.35
2022-09-15T22:46:07.672Z,3.80
2022-09-15T22:49:11.434Z,3.53
2022-09-15T22:52:14.093Z,3.20
2022-09-15T22:55:16.481Z,3.50
2022-09-15T22:58:19.229Z,3.35
2022-09-15T23:01:23.453Z,3.10
2022-09-15T23:04:26.074Z,3.20
2022-09-15T23:07:28.308Z,2.95
2022-09-15T23:10:31.131Z,3.28
2022-09-15T23:13:33.659Z,2.92
2022-09-15T23:16:36.430Z,3.58
2022-09-15T23:19:38.879Z,3.05
2022-09-15T23:25:43.723Z,3.58
2022-09-15T23:28:46.107Z,3.22
2022-09-15T23:31:48.529Z,3.70
2022-09-15T23:34:50.882Z,3.33
2022-09-15T23:37:53.317Z,3.75
2022-09-15T23:40:55.458Z,3.42
2022-09-15T23:47:00.644Z,3.65
2022-09-15T23:50:02.961Z,3.60
2022-09-15T23:56:08.385Z,3.20
2022-09-15T23:59:10.717Z,4.25
